Home > Products > Valid Products > TAF

000
FTUS41 KCAR 240400 AAC
TAFHUL
TAF AMD
KHUL 240425Z 2404/2424 35006KT P6SM VCSH OVC035
     FM241000 36006KT P6SM SCT050 BKN100=



000
FTUS41 KCAR 240400 AAC
TAFBHB
TAF AMD
KBHB 240405Z 2404/2424 26005KT P6SM -RA SCT045 OVC110
     FM240800 34004KT 6SM -RA SCT030 OVC070
     FM241500 02004KT P6SM BKN060
      AMD LTD TO CLD VIS AND WIND=



000
FTUS41 KCAR 240300 AAA
TAFBGR
TAF AMD
KBGR 240354Z 2404/2424 24004KT P6SM -RA FEW004 BKN090 OVC120
     FM240600 35005KT 6SM -RA BR SCT010 BKN090
     FM241400 01007KT P6SM BKN060
     FM242000 VRB03KT P6SM BKN250=



000
FTUS41 KCAR 240200 AAB
TAFHUL
TAF AMD
KHUL 240222Z 2402/2424 35006KT P6SM VCSH BKN030 OVC070
     FM241000 36006KT P6SM SCT050 BKN100=



000
FTUS41 KCAR 240200 AAA
TAFHUL
TAF AMD
KHUL 240221Z 2402/2424 35006KT P6SM VCSH BKN030 OVC070
     FM241000 36006KT P6SM SCT050 BKN100=



000
FTUS41 KCAR 240200 AAB
TAFBHB
TAF AMD
KBHB 240220Z 2402/2424 22010KT P6SM -SHRA OVC050
     FM240400 26007KT 6SM -SHRA OVC030
     FM240800 34004KT 6SM -SHRA OVC012
     FM241500 02004KT P6SM BKN060
      AMD LTD TO CLD VIS AND WIND=



000
FTUS41 KCAR 240200 AAA
TAFBHB
TAF AMD
KBHB 240217Z 2402/2424 22010KT P6SM -SHRA VCTS BKN050CB
     FM240400 26007KT 6SM -SHRA OVC030
     FM240800 34004KT 6SM -SHRA OVC012
     FM241500 02004KT P6SM BKN060
      AMD LTD TO CLD VIS AND WIND=



000
FTUS41 KCAR 240200 AAB
TAFPQI
TAF AMD
KPQI 240216Z 2402/2424 32006KT P6SM BKN035 OVC060
      AMD LTD TO CLD VIS AND WIND=



000
FTUS41 KCAR 240000 AAA
TAFPQI
TAF AMD
KPQI 240008Z 2400/2424 34006G12KT P6SM BKN035 OVC060
      AMD LTD TO CLD VIS AND WIND=



000
FTUS41 KCAR 232300
TAFBGR
TAF
KBGR 232320Z 2400/2424 24004KT P6SM -SHRA OVC040
     FM240400 VRB03KT 6SM -SHRA BKN025
     FM240600 35005KT 6SM -SHRA BKN005
     FM241200 01007KT P6SM BKN008
     FM241400 01007KT P6SM BKN060
     FM242000 VRB03KT P6SM BKN250=



000
FTUS41 KCAR 232300
TAFCAR
TAF
KCAR 232320Z 2400/2424 33006KT P6SM BKN060=



000
FTUS41 KCAR 232300
TAFBHB
TAF
KBHB 232320Z 2400/2424 22010KT P6SM -SHRA VCTS BKN050CB
     FM240200 22007KT 6SM -SHRA OVC030
     FM240400 24004KT 6SM -SHRA OVC008
     FM241300 01008KT P6SM BKN003
     FM241500 01007KT P6SM BKN015
     FM241800 02004KT P6SM BKN060
      AMD LTD TO CLD VIS AND WIND=



000
FTUS41 KCAR 232300
TAFHUL
TAF
KHUL 232320Z 2400/2424 30004KT P6SM VCSH OVC070
     FM241300 36006KT P6SM SCT250=



000
FTUS41 KCAR 232300
TAFPQI
TAF
KPQI 232320Z 2400/2424 33006KT P6SM BKN050
      AMD LTD TO CLD VIS AND WIND=



000
FTUS41 KCAR 232200 AAA
TAFHUL
TAF AMD
KHUL 232230Z 2323/2418 21012G20KT P6SM -SHRA SCT040 OVC070
     FM240000 25005KT P6SM BKN035 OVC050
     FM240600 36004KT P6SM VCSH BKN050
     FM241500 36007KT P6SM SCT080=



000
FTUS41 KCAR 232200 AAB
TAFCAR
TAF AMD
KCAR 232229Z 2322/2418 23010G18KT P6SM VCSH OVC045
     FM240000 31006KT P6SM VCSH BKN060
     FM240600 34004KT P6SM SCT060=



000
FTUS41 KCAR 232200 AAB
TAFPQI
TAF AMD
KPQI 232229Z 2322/2418 22010G18KT P6SM VCSH BKN045 OVC070
     FM240000 30006KT P6SM VCSH BKN060
     FM240600 34005KT P6SM SCT060=



000
FTUS41 KCAR 232100 AAA
TAFBGR
TAF AMD
KBGR 232125Z 2321/2418 20008KT 6SM -TSRA BKN035CB OVC060
      TEMPO 2321/2323 VRB20G45KT 2SM +TSRA OVC025CB
     FM240000 VRB06KT 6SM -TSRA BKN035CB OVC050
     FM240600 36004KT P6SM VCSH BKN050
     FM241500 36007KT P6SM SCT080=



000
FTUS41 KCAR 232100 AAA
TAFPQI
TAF AMD
KPQI 232123Z 2321/2418 22010G18KT P6SM VCTS BKN045CB OVC070
      TEMPO 2321/2323 VRB20G45KT 2SM +TSRA OVC025CB
     FM232300 26009KT 6SM -TSRA BKN035CB OVC060
     FM240000 30006KT P6SM VCSH BKN060
     FM240600 34005KT P6SM SCT060=



000
FTUS41 KCAR 232100 AAA
TAFCAR
TAF AMD
KCAR 232122Z 2321/2418 23010G18KT P6SM VCTS OVC045CB
      TEMPO 2321/2323 VRB20G45KT 2SM +TSRA OVC025CB
     FM232300 28009KT 6SM -TSRA BKN035CB OVC060
     FM240000 31006KT P6SM VCSH BKN060
     FM240600 34004KT P6SM SCT060=



000
FTUS41 KCAR 231700 RRA
TAFBHB
TAF
KBHB 231746Z 2318/2418 20014KT P6SM SCT250
     FM232200 21012KT 6SM -TSRA SCT035CB OVC060
     FM240200 21010KT 6SM -TSRA OVC035CB
     FM240600 03004KT 5SM TSRA OVC025CB
     FM241500 01007KT 6SM -SHRA OVC035=



000
FTUS41 KCAR 231700 RRA
TAFHUL
TAF
KHUL 231746Z 2318/2418 21012G20KT P6SM VCTS SCT040CB BKN250
     FM232000 24009KT 6SM -TSRA BKN035CB OVC060
      TEMPO 2320/2323 VRB20G45KT 2SM +TSRA OVC025CB
     FM240000 25005KT P6SM -TSRA BKN035CB OVC050
     FM240600 36004KT P6SM VCSH BKN050
     FM241500 36007KT P6SM SCT080=



000
FTUS41 KCAR 231700 RRA
TAFBGR
TAF
KBGR 231746Z 2318/2418 19010G18KT P6SM VCTS SCT040CB BKN250
     FM232000 20008KT 6SM -TSRA BKN035CB OVC060
      TEMPO 2321/2324 VRB20G45KT 2SM +TSRA OVC025CB
     FM240000 VRB06KT 6SM -TSRA BKN035CB OVC050
     FM240600 36004KT P6SM VCSH BKN050
     FM241500 36007KT P6SM SCT080=



000
FTUS41 KCAR 231700 RRA
TAFCAR
TAF
KCAR 231746Z 2318/2418 23010G18KT P6SM VCTS OVC045CB
      TEMPO 2318/2321 VRB20G45KT 2SM +TSRA OVC025CB
     FM232100 28009KT 6SM -TSRA BKN035CB OVC060
     FM240000 31006KT P6SM VCSH BKN060
     FM240600 34004KT P6SM SCT060=



000
FTUS41 KCAR 231700 RRA
TAFPQI
TAF
KPQI 231746Z 2318/2418 22010G18KT P6SM VCTS BKN045CB OVC070
      TEMPO 2318/2321 VRB20G45KT 2SM +TSRA OVC025CB
     FM232100 26009KT 6SM -TSRA BKN035CB OVC060
     FM240000 30006KT P6SM VCSH BKN060
     FM240600 34005KT P6SM SCT060=



000
FTUS41 KCAR 231500 AAA
TAFBGR
TAF AMD
KBGR 231525Z 2315/2412 19012KT P6SM SCT050 BKN250
     FM232000 20012G20KT P6SM VCTS SCT035CB BKN070
      TEMPO 2320/2323 VRB20G45KT 2SM +TSRA OVC025CB
     FM240000 23010KT P6SM -SHRA OVC050=



000
FTUS41 KCAR 231400 AAA
TAFHUL
TAF AMD
KHUL 231437Z 2315/2412 21012G20KT P6SM SCT050 BKN250
     FM231800 20010G20KT P6SM VCTS SCT035CB BKN090
      TEMPO 2318/2322 VRB20G45KT 2SM +TSRA OVC025CB
     FM232200 26008KT P6SM VCSH SCT040 BKN080
     FM232300 30012KT P6SM SCT060=



000
FTUS41 KCAR 231400 AAA
TAFCAR
TAF AMD
KCAR 231436Z 2315/2412 22012G20KT P6SM SCT040 BKN250
     FM231700 21012G20KT P6SM VCTS SCT035CB BKN090
      TEMPO 2317/2321 VRB15G40KT 2SM +TSRA OVC025CB
     FM232100 26008KT P6SM VCSH SCT040 BKN080
     FM232200 30012KT P6SM SCT060=



000
FTUS41 KCAR 231100
TAFCAR
TAF
KCAR 231129Z 2312/2412 19005KT P6SM BKN250
     FM231500 22010G17KT P6SM SCT050 BKN250
     FM231700 21012G20KT P6SM VCTS SCT035CB BKN090
      TEMPO 2317/2321 VRB15G40KT 2SM +TSRA OVC025CB
     FM232100 26008KT P6SM VCSH SCT040 BKN080
     FM232200 30012KT P6SM SCT060=



000
FTUS41 KCAR 231100
TAFHUL
TAF
KHUL 231129Z 2312/2412 21007KT P6SM BKN250
     FM231500 21013G20KT P6SM SCT050 BKN250
     FM231800 20010G20KT P6SM VCTS SCT035CB BKN090
      TEMPO 2318/2322 VRB20G45KT 2SM +TSRA OVC025CB
     FM232200 26008KT P6SM VCSH SCT040 BKN080
     FM232300 30012KT P6SM SCT060=



000
FTUS41 KCAR 231100
TAFPQI
TAF
KPQI 231129Z 2312/2412 19008KT P6SM BKN250
     FM231400 22010G17KT P6SM SCT045 BKN250
     FM231700 21010G17KT P6SM VCTS SCT035CB BKN090
      TEMPO 2317/2321 VRB20G45KT 2SM +TSRA OVC025CB
     FM232100 26008KT P6SM VCSH SCT040 BKN080
     FM232200 30012KT P6SM SCT060
      AMD LTD TO CLD VIS AND WIND=



000
FTUS41 KCAR 231100
TAFBGR
TAF
KBGR 231129Z 2312/2412 17006KT P6SM SCT250
     FM231400 20012KT P6SM SCT050 BKN250
     FM232000 20012G20KT P6SM VCTS SCT035CB BKN070
      TEMPO 2320/2323 VRB20G45KT 2SM +TSRA OVC025CB
     FM240000 23010KT P6SM -SHRA OVC050=



000
FTUS41 KCAR 231100
TAFBHB
TAF
KBHB 231129Z 2312/2412 20008KT P6SM SCT250
     FM231600 21010KT P6SM SCT060 BKN250
     FM232100 20012G20KT P6SM VCTS SCT035CB BKN070
     FM240300 23010KT P6SM -SHRA OVC050
      AMD LTD TO CLD VIS AND WIND=



000
FTUS41 KCAR 231000 AAA
TAFBGR
TAF AMD
KBGR 231006Z 2310/2406 20005KT 6SM BR SCT050
     FM231500 20012KT P6SM SCT050 BKN200
     FM232000 20012G20KT 6SM SHRA VCTS SCT035CB BKN070 OVC120
      TEMPO 2320/2323 VRB20G45KT 2SM +TSRA OVC025CB
     FM240000 23010KT P6SM -SHRA OVC050=



000
FTUS41 KCAR 230500
TAFBHB
TAF
KBHB 230534Z 2306/2406 20008KT 6SM BR FEW004
     FM230700 21006KT 3SM BR SCT004
     FM231100 21010KT P6SM FEW060 SCT200
     FM232100 20012G20KT 6SM SHRA VCTS SCT035CB BKN070 OVC120
     FM240300 23010KT P6SM -SHRA OVC050
      AMD LTD TO CLD VIS AND WIND=



000
FTUS41 KCAR 230500
TAFCAR
TAF
KCAR 230534Z 2306/2406 24008KT P6SM SCT250
     FM231400 22010G17KT P6SM SCT050 BKN200
     FM231700 21012G20KT 6SM SHRA VCTS SCT035CB OVC120
      TEMPO 2317/2320 VRB15G40KT 2SM +TSRA OVC025CB
     FM232000 26008KT P6SM VCSH SCT040 BKN080
     FM232200 30012KT P6SM SCT060=



000
FTUS41 KCAR 230500
TAFPQI
TAF
KPQI 230534Z 2306/2406 VRB03KT P6SM SCT250
     FM231400 22010G17KT P6SM SCT045 BKN200
     FM231700 21010G17KT 6SM SHRA VCTS SCT035CB OVC120
      TEMPO 2317/2320 VRB20G45KT 2SM +TSRA OVC025CB
     FM232000 26008KT P6SM VCSH SCT040 BKN080
     FM232200 30012KT P6SM SCT060
      AMD LTD TO CLD VIS AND WIND=



000
FTUS41 KCAR 230500
TAFBGR
TAF
KBGR 230534Z 2306/2406 17010KT P6SM BKN250
     FM231500 20012KT P6SM SCT050 BKN200
     FM232000 20012G20KT 6SM SHRA VCTS SCT035CB BKN070 OVC120
      TEMPO 2320/2323 VRB20G45KT 2SM +TSRA OVC025CB
     FM240000 23010KT P6SM -SHRA OVC050=



000
FTUS41 KCAR 230500
TAFHUL
TAF
KHUL 230534Z 2306/2406 21005KT P6SM SCT250
     FM231500 21013G20KT P6SM SCT050 BKN200
     FM231800 20010G20KT 6SM SHRA VCTS SCT035CB OVC120
      TEMPO 2318/2320 VRB20G45KT 2SM +TSRA OVC025CB
     FM232000 26008KT P6SM VCSH SCT040 BKN080
     FM232200 30012KT P6SM SCT060=



000
FTUS41 KCAR 222300
TAFBGR
TAF
KBGR 222335Z 2300/2324 17010KT P6SM BKN250
     FM231500 20012KT P6SM SCT050 BKN200
     FM232000 20012G20KT 6SM SHRA VCTS SCT035CB BKN070 OVC120=



000
FTUS41 KCAR 222300
TAFBHB
TAF
KBHB 222335Z 2300/2324 20008KT P6SM SCT250
     FM230700 21006KT 3SM BR SCT004
     FM231100 21010KT P6SM FEW060 SCT200
     FM232100 20012G20KT 6SM SHRA VCTS SCT035CB BKN070 OVC120
      AMD LTD TO CLD VIS AND WIND=



000
FTUS41 KCAR 222300
TAFCAR
TAF
KCAR 222335Z 2300/2324 24008KT P6SM SCT250
     FM231400 22010G17KT P6SM SCT050 BKN200
     FM231700 21012G20KT 6SM SHRA VCTS SCT035CB OVC120=



000
FTUS41 KCAR 222300
TAFPQI
TAF
KPQI 222335Z 2300/2324 23005KT P6SM SCT250
     FM231400 22010G17KT P6SM SCT045 BKN200
     FM231700 21010G17KT 6SM SHRA VCTS SCT035CB OVC120
      AMD LTD TO CLD VIS AND WIND=



000
FTUS41 KCAR 222300
TAFHUL
TAF
KHUL 222335Z 2300/2324 21005KT P6SM SCT250
     FM231500 21013G20KT P6SM SCT050 BKN200
     FM231800 20010G20KT 6SM SHRA VCTS SCT035CB OVC120=



000
FTUS41 KCAR 221700 RRA
TAFCAR
TAF
KCAR 221744Z 2218/2318 26010G17KT P6SM SCT060
     FM230000 23007KT P6SM SCT200
     FM230300 VRB03KT P6SM FEW250
     FM231000 20007KT P6SM SCT250
     FM231400 22010G17KT P6SM SCT045 BKN200
     FM231700 21010G17KT P6SM VCTS SCT035CB OVC120=



000
FTUS41 KCAR 221700 RRA
TAFPQI
TAF
KPQI 221744Z 2218/2318 24010G17KT P6SM SCT060
     FM230000 23007KT P6SM SCT200
     FM230300 VRB03KT P6SM FEW250
     FM231000 20007KT P6SM SCT250
     FM231400 22010G17KT P6SM SCT045 BKN200
     FM231700 21010G17KT P6SM VCTS SCT035CB OVC120
      AMD LTD TO CLD VIS AND WIND=



000
FTUS41 KCAR 221700 RRA
TAFBGR
TAF
KBGR 221744Z 2218/2318 21010KT P6SM FEW250
     FM230200 20005KT P6SM FEW200
     FM230500 VRB02KT P6SM SCT150
     FM231200 20006KT P6SM FEW250
     FM231500 20012KT P6SM SCT050 BKN200=



000
FTUS41 KCAR 221700 RRA
TAFBHB
TAF
KBHB 221744Z 2218/2318 21011KT P6SM FEW250
     FM230200 21007KT P6SM FEW200
     FM230700 21006KT 3SM BR SCT010
     FM231200 21010KT P6SM FEW060 SCT200
      AMD LTD TO CLD VIS AND WIND=



000
FTUS41 KCAR 221700 RRA
TAFHUL
TAF
KHUL 221744Z 2218/2318 24008G15KT P6SM FEW060
     FM230100 21006KT P6SM SCT100
     FM230500 VRB02KT P6SM FEW250
     FM231000 20006KT P6SM SCT250
     FM231500 21013G20KT P6SM SCT050 BKN200=



000
FTUS41 KCAR 221100 RRA
TAFBHB
TAF
KBHB 221151Z 2212/2312 22005KT P6SM SKC
     FM221700 22010G20KT P6SM SKC
     FM230000 21007KT P6SM SKC
     FM230300 21006KT 3SM BR SCT001
      AMD LTD TO CLD VIS AND WIND=



000
FTUS41 KCAR 221100 RRA
TAFCAR
TAF
KCAR 221151Z 2212/2312 21004KT P6SM FEW250
     FM221700 23010G20KT P6SM SKC
     FM230000 22004KT P6SM SKC=



000
FTUS41 KCAR 221100 RRA
TAFPQI
TAF
KPQI 221151Z 2212/2312 22004KT P6SM SKC
     FM221700 24010G20KT P6SM SKC
     FM230000 23006KT P6SM SKC
      AMD LTD TO CLD VIS AND WIND=



000
FTUS41 KCAR 221100 RRA
TAFHUL
TAF
KHUL 221151Z 2212/2312 22005KT P6SM SKC
     FM221700 23010G20KT P6SM SCT250
     FM230500 21006KT P6SM SCT250=



000
FTUS41 KCAR 221100 RRA
TAFBGR
TAF
KBGR 221151Z 2212/2312 00000KT P6SM SCT120
     FM221400 21008KT P6SM SCT120
     FM230400 20005KT 4SM BR SCT002=



000
FTUS41 KCAR 220600 AAA
TAFBHB
TAF AMD
KBHB 220635Z 2207/2306 VRB03KT P6SM SKC
     FM220800 00000KT 4SM BR SCT002
     FM221100 22005KT P6SM SKC
     FM221700 22010G20KT P6SM SKC
     FM230000 21007KT P6SM SKC
     FM230300 21006KT 3SM BR SCT001
      AMD LTD TO CLD VIS AND WIND=



000
FTUS41 KCAR 220500
TAFCAR
TAF
KCAR 220533Z 2206/2306 21004KT P6SM FEW250
     FM221700 23010G20KT P6SM SKC
     FM230000 22004KT P6SM SKC=



000
FTUS41 KCAR 220500
TAFPQI
TAF
KPQI 220533Z 2206/2306 22004KT P6SM SKC
     FM221700 24010G20KT P6SM SKC
     FM230000 23006KT P6SM SKC
      AMD LTD TO CLD VIS AND WIND=



000
FTUS41 KCAR 220500
TAFHUL
TAF
KHUL 220533Z 2206/2306 22005KT P6SM SKC
     FM221700 23010G20KT P6SM SCT250
     FM230500 21006KT P6SM SCT250=



000
FTUS41 KCAR 220500
TAFBGR
TAF
KBGR 220533Z 2206/2306 00000KT P6SM SCT120
     FM221400 21008KT P6SM SCT120
     FM230400 20005KT 4SM BR SCT002=



000
FTUS41 KCAR 220500
TAFBHB
TAF
KBHB 220533Z 2206/2306 22005KT P6SM SKC
     FM221700 22010G20KT P6SM SKC
     FM230000 21007KT P6SM SKC
     FM230300 21006KT 3SM BR SCT001
      AMD LTD TO CLD VIS AND WIND=



000
FTUS41 KCAR 212300
TAFCAR
TAF
KCAR 212320Z 2200/2224 16003KT P6SM SKC
     FM221600 24009KT P6SM SCT060=



000
FTUS41 KCAR 212300
TAFPQI
TAF
KPQI 212320Z 2200/2224 14006KT P6SM SKC
     FM220800 00000KT P6SM BCFG SKC
     FM221100 23006KT P6SM SKC
      AMD LTD TO CLD VIS AND WIND=



000
FTUS41 KCAR 212300
TAFHUL
TAF
KHUL 212320Z 2200/2224 19003KT P6SM SKC
     FM220300 00000KT P6SM BCFG SKC
     FM221100 23006KT P6SM SCT070=



000
FTUS41 KCAR 212300
TAFBHB
TAF
KBHB 212320Z 2200/2224 20011KT P6SM SKC
     FM220800 22004KT P6SM BCFG BKN002
     FM221100 21008KT P6SM FEW120 SCT250
      AMD LTD TO CLD VIS AND WIND=



000
FTUS41 KCAR 212300
TAFBGR
TAF
KBGR 212320Z 2200/2224 18010KT P6SM FEW060 FEW200
     FM220600 VRB02KT P6SM FEW250
     FM221400 22006KT P6SM FEW120 SCT250=



000
FTUS41 KCAR 211700
TAFPQI
TAF
KPQI 211721Z 2118/2218 18005KT P6SM SCT060
     FM220500 VRB02KT P6SM FEW200
     FM221300 23006KT P6SM SCT150
     FM221600 24010KT P6SM SCT060
      AMD LTD TO CLD VIS AND WIND=



000
FTUS41 KCAR 211700
TAFBHB
TAF
KBHB 211721Z 2118/2218 16005KT P6SM FEW050
     FM220300 22004KT P6SM FEW250
     FM221500 21008KT P6SM FEW120
      AMD LTD TO CLD VIS AND WIND=



000
FTUS41 KCAR 211700
TAFHUL
TAF
KHUL 211721Z 2118/2218 20005KT P6SM SCT050
     FM220100 18004KT P6SM SCT200
     FM220300 VRB02KT P6SM SCT120
     FM221400 23006KT P6SM SCT070=



000
FTUS41 KCAR 211700
TAFBGR
TAF
KBGR 211721Z 2118/2218 15006KT P6SM SCT040
     FM212100 18006KT P6SM SCT250
     FM220500 VRB02KT P6SM FEW250
     FM221400 22006KT P6SM FEW120=



000
FTUS41 KCAR 211700
TAFCAR
TAF
KCAR 211721Z 2118/2218 20005KT P6SM SCT060
     FM221600 24009KT P6SM SCT060=



000
FTUS41 KCAR 211100
TAFCAR
TAF
KCAR 211120Z 2112/2212 00000KT P6SM BKN120=



000
FTUS41 KCAR 211100
TAFPQI
TAF
KPQI 211120Z 2112/2212 00000KT P6SM BKN120
      AMD LTD TO CLD VIS AND WIND=



000
FTUS41 KCAR 211100
TAFBHB
TAF
KBHB 211120Z 2112/2212 VRB03KT P6SM BKN080
     FM212300 20004KT P6SM FEW250
     FM220600 VRB03KT P6SM FEW001
      AMD LTD TO CLD VIS AND WIND=



000
FTUS41 KCAR 211100
TAFBGR
TAF
KBGR 211120Z 2112/2212 00000KT P6SM SCT250=



000
FTUS41 KCAR 211100
TAFHUL
TAF
KHUL 211120Z 2112/2212 00000KT P6SM BKN110=



000
FTUS41 KCAR 210600 AAA
TAFBGR
TAF AMD
KBGR 210632Z 2107/2206 VRB03KT 1 1/2SM BR SCT008
     FM210700 VRB03KT P6SM SCT080
     FM211900 20006KT P6SM FEW250
     FM220400 00000KT P6SM SCT250=



000
FTUS41 KCAR 210500
TAFCAR
TAF
KCAR 210522Z 2106/2206 00000KT P6SM OVC120
     FM211500 20006KT P6SM BKN250=



000
FTUS41 KCAR 210500
TAFPQI
TAF
KPQI 210522Z 2106/2206 00000KT P6SM OVC120
     FM211700 20006KT P6SM BKN250
      AMD LTD TO CLD VIS AND WIND=



000
FTUS41 KCAR 210500
TAFBGR
TAF
KBGR 210522Z 2106/2206 VRB03KT P6SM FEW110
     FM211900 20006KT P6SM FEW250
     FM220400 00000KT P6SM SCT250=



000
FTUS41 KCAR 210500
TAFBHB
TAF
KBHB 210522Z 2106/2206 00000KT P6SM OVC090
     FM211900 19006KT P6SM FEW250
      AMD LTD TO CLD VIS AND WIND=



000
FTUS41 KCAR 210500
TAFHUL
TAF
KHUL 210522Z 2106/2206 00000KT P6SM OVC120
     FM211700 20006KT P6SM SCT250=



    US Dept of Commerce
    National Oceanic and Atmospheric Administration
    National Weather Service
    1325 East West Highway
    Silver Spring, MD 20910
    Page Author: NWS Internet Services Team
Disclaimer
Information Quality
Credits
Glossary
Privacy Policy
Freedom of Information Act (FOIA)
About Us
Career Opportunities